createdAt,value
2018-09-25T00:00:33.802Z,1023.38
2018-09-25T00:01:34.490Z,1023.34
2018-09-25T00:02:33.780Z,1023.32
2018-09-25T00:03:33.774Z,1023.36
2018-09-25T00:04:33.759Z,1023.34
2018-09-25T00:05:33.747Z,1023.37
2018-09-25T00:06:33.740Z,1023.35
2018-09-25T00:07:33.751Z,1023.33
2018-09-25T00:08:33.720Z,1023.33
2018-09-25T00:09:33.703Z,1023.29
2018-09-25T00:10:33.694Z,1023.33
2018-09-25T00:11:33.683Z,1023.35
2018-09-25T00:12:33.670Z,1023.32
2018-09-25T00:13:33.676Z,1023.32
2018-09-25T00:14:33.648Z,1023.33
2018-09-25T00:15:33.638Z,1023.30
2018-09-25T00:16:33.655Z,1023.34
2018-09-25T00:17:33.619Z,1023.34
2018-09-25T00:18:33.607Z,1023.38
2018-09-25T00:19:33.596Z,1023.31
2018-09-25T00:20:33.585Z,1023.30
2018-09-25T00:21:33.575Z,1023.32
2018-09-25T00:22:33.582Z,1023.30
2018-09-25T00:23:33.555Z,1023.32
2018-09-25T00:24:33.545Z,1023.32
2018-09-25T00:25:33.533Z,1023.32
2018-09-25T00:26:33.519Z,1023.33
2018-09-25T00:27:33.508Z,1023.32
2018-09-25T00:28:33.511Z,1023.35
2018-09-25T00:29:33.488Z,1023.39
2018-09-25T00:30:33.475Z,1023.36
2018-09-25T00:31:33.467Z,1023.36
2018-09-25T00:32:33.455Z,1023.42
2018-09-25T00:33:33.456Z,1023.42
2018-09-25T00:34:33.453Z,1023.41
2018-09-25T00:35:33.423Z,1023.39
2018-09-25T00:36:33.410Z,1023.41
2018-09-25T00:37:33.401Z,1023.43
2018-09-25T00:38:33.388Z,1023.45
2018-09-25T00:39:33.377Z,1023.46
2018-09-25T00:40:33.381Z,1023.48
2018-09-25T00:41:33.357Z,1023.51
2018-09-25T00:42:33.347Z,1023.42
2018-09-25T00:43:33.334Z,1023.44
2018-09-25T00:44:33.323Z,1023.50
2018-09-25T00:45:33.328Z,1023.49
2018-09-25T00:46:33.306Z,1023.48
2018-09-25T00:47:33.295Z,1023.48
2018-09-25T00:48:33.282Z,1023.49
2018-09-25T00:49:33.269Z,1023.49
2018-09-25T00:50:33.297Z,1023.51
2018-09-25T00:51:33.292Z,1023.49
2018-09-25T00:52:33.239Z,1023.52
2018-09-25T00:53:33.228Z,1023.51
2018-09-25T00:54:33.219Z,1023.54
2018-09-25T00:55:33.205Z,1023.55
2018-09-25T00:56:33.213Z,1023.57
2018-09-25T00:57:33.186Z,1023.57
2018-09-25T00:58:33.172Z,1023.59
2018-09-25T00:59:33.165Z,1023.60
2018-09-25T01:00:33.151Z,1023.62
2018-09-25T01:01:33.139Z,1023.59
2018-09-25T01:02:33.141Z,1023.60
2018-09-25T01:03:33.116Z,1023.60
2018-09-25T01:04:33.108Z,1023.55
2018-09-25T01:05:33.095Z,1023.56
2018-09-25T01:06:33.099Z,1023.57
2018-09-25T01:07:33.091Z,1023.62
2018-09-25T01:08:33.076Z,1023.61
2018-09-25T01:09:33.056Z,1023.65
2018-09-25T01:10:33.046Z,1023.65
2018-09-25T01:11:33.990Z,1023.68
2018-09-25T01:12:33.058Z,1023.66
2018-09-25T01:13:33.008Z,1023.68
2018-09-25T01:14:33.000Z,1023.68
2018-09-25T01:15:32.988Z,1023.73
2018-09-25T01:16:32.977Z,1023.75
2018-09-25T01:17:32.965Z,1023.72
2018-09-25T01:18:32.995Z,1023.74
2018-09-25T01:19:32.942Z,1023.73
2018-09-25T01:20:32.935Z,1023.78
2018-09-25T01:21:32.921Z,1023.78
2018-09-25T01:22:32.912Z,1023.78
2018-09-25T01:23:32.901Z,1023.76
2018-09-25T01:24:32.904Z,1023.79
2018-09-25T01:25:32.879Z,1023.77
2018-09-25T01:26:32.867Z,1023.75
2018-09-25T01:27:32.858Z,1023.75
2018-09-25T01:28:32.887Z,1023.76
2018-09-25T01:29:32.838Z,1023.84
2018-09-25T01:30:32.823Z,1023.86
2018-09-25T01:31:32.815Z,1023.84
2018-09-25T01:32:32.805Z,1023.84
2018-09-25T01:33:32.792Z,1023.84
2018-09-25T01:34:32.797Z,1023.89
2018-09-25T01:35:32.772Z,1023.85
2018-09-25T01:36:32.761Z,1023.89
2018-09-25T01:37:32.748Z,1023.87
2018-09-25T01:38:32.738Z,1023.89
2018-09-25T01:39:32.745Z,1023.93
2018-09-25T01:40:32.720Z,1023.94
2018-09-25T01:41:32.705Z,1023.96
2018-09-25T01:42:32.708Z,1023.98
2018-09-25T01:43:32.684Z,1024.00
2018-09-25T01:44:32.685Z,1023.97
2018-09-25T01:45:32.663Z,1023.92
2018-09-25T01:46:32.649Z,1023.91
2018-09-25T01:47:32.640Z,1023.94
2018-09-25T01:48:32.628Z,1023.92
2018-09-25T01:49:32.642Z,1023.95
2018-09-25T01:50:32.609Z,1023.96
2018-09-25T01:51:32.596Z,1023.95
2018-09-25T01:52:32.587Z,1023.97
2018-09-25T01:53:32.576Z,1023.92
2018-09-25T01:54:32.563Z,1023.93
2018-09-25T01:55:32.576Z,1023.88
2018-09-25T01:56:32.542Z,1023.92
2018-09-25T01:57:32.530Z,1023.92
2018-09-25T01:58:32.520Z,1023.90
2018-09-25T01:59:32.511Z,1023.93
2018-09-25T02:00:32.501Z,1023.91
2018-09-25T02:01:32.500Z,1023.91
2018-09-25T02:02:32.478Z,1023.86
2018-09-25T02:03:32.471Z,1023.84
2018-09-25T02:04:32.458Z,1023.84
2018-09-25T02:05:32.447Z,1023.81
2018-09-25T02:06:32.450Z,1023.85
2018-09-25T02:07:32.426Z,1023.88
2018-09-25T02:08:32.429Z,1023.90
2018-09-25T02:09:32.401Z,1023.89
2018-09-25T02:10:32.392Z,1023.91
2018-09-25T02:11:32.400Z,1023.94
2018-09-25T02:12:32.372Z,1023.93
2018-09-25T02:13:32.377Z,1023.90
2018-09-25T02:14:32.349Z,1023.92
2018-09-25T02:15:32.336Z,1023.93
2018-09-25T02:16:32.979Z,1023.87
2018-09-25T02:17:32.317Z,1023.88
2018-09-25T02:18:32.320Z,1023.89
2018-09-25T02:19:32.295Z,1023.94
2018-09-25T02:20:32.292Z,1023.93
2018-09-25T02:21:32.271Z,1023.98
2018-09-25T02:22:32.262Z,1023.94
2018-09-25T02:23:32.268Z,1023.94
2018-09-25T02:24:32.239Z,1023.95
2018-09-25T02:25:32.229Z,1023.96
2018-09-25T02:26:32.221Z,1023.98
2018-09-25T02:27:32.215Z,1023.97
2018-09-25T02:28:32.211Z,1023.94
2018-09-25T02:29:32.189Z,1023.95
2018-09-25T02:30:32.194Z,1023.96
2018-09-25T02:31:32.164Z,1023.95
2018-09-25T02:32:32.153Z,1023.95
2018-09-25T02:33:32.182Z,1023.90
2018-09-25T02:34:32.131Z,1023.90
2018-09-25T02:35:32.119Z,1023.95
2018-09-25T02:36:32.112Z,1023.93
2018-09-25T02:37:32.099Z,1023.92
2018-09-25T02:38:32.089Z,1023.98
2018-09-25T02:39:32.095Z,1023.92
2018-09-25T02:40:32.065Z,1023.93
2018-09-25T02:41:32.054Z,1023.95
2018-09-25T02:42:32.044Z,1024.00
2018-09-25T02:43:32.037Z,1024.03
2018-09-25T02:44:32.041Z,1024.03
2018-09-25T02:45:32.025Z,1024.04
2018-09-25T02:46:32.003Z,1024.06
2018-09-25T02:47:31.991Z,1024.07
2018-09-25T02:48:31.982Z,1024.04
2018-09-25T02:49:31.985Z,1024.01
2018-09-25T02:50:31.956Z,1023.95
2018-09-25T02:51:31.947Z,1024.02
2018-09-25T02:52:31.950Z,1024.02
2018-09-25T02:53:31.927Z,1024.00
2018-09-25T02:54:31.931Z,1023.99
2018-09-25T02:55:31.906Z,1023.98
2018-09-25T02:56:31.891Z,1024.00
2018-09-25T02:57:31.883Z,1023.97
2018-09-25T02:58:31.871Z,1023.95
2018-09-25T02:59:31.874Z,1023.94
2018-09-25T03:00:31.861Z,1024.00
2018-09-25T03:01:31.839Z,1023.98
2018-09-25T03:02:31.826Z,1024.03
2018-09-25T03:03:31.814Z,1024.04
2018-09-25T03:04:31.806Z,1024.07
2018-09-25T03:05:31.809Z,1024.04
2018-09-25T03:06:31.784Z,1024.01
2018-09-25T03:07:31.772Z,1024.08
2018-09-25T03:08:31.760Z,1024.04
2018-09-25T03:09:31.757Z,1024.07
2018-09-25T03:10:31.758Z,1024.09
2018-09-25T03:11:31.730Z,1024.13
2018-09-25T03:12:31.720Z,1024.11
2018-09-25T03:13:31.707Z,1024.10
2018-09-25T03:14:31.697Z,1024.15
2018-09-25T03:15:31.686Z,1024.15
2018-09-25T03:16:31.691Z,1024.10
2018-09-25T03:17:31.664Z,1024.11
2018-09-25T03:18:31.652Z,1024.11
2018-09-25T03:19:31.640Z,1024.11
2018-09-25T03:20:31.644Z,1024.08
2018-09-25T03:21:31.632Z,1024.10
2018-09-25T03:22:31.609Z,1024.12
2018-09-25T03:23:31.598Z,1024.13
2018-09-25T03:24:31.591Z,1024.09
2018-09-25T03:25:31.591Z,1024.11
2018-09-25T03:26:31.567Z,1024.17
2018-09-25T03:27:31.575Z,1024.14
2018-09-25T03:28:31.558Z,1024.13
2018-09-25T03:29:31.586Z,1024.12
2018-09-25T03:30:31.521Z,1024.10
2018-09-25T03:31:31.523Z,1024.12
2018-09-25T03:32:31.514Z,1024.17
2018-09-25T03:33:31.503Z,1024.13
2018-09-25T03:34:31.480Z,1024.17
2018-09-25T03:35:31.471Z,1024.14
2018-09-25T03:36:31.454Z,1024.15
2018-09-25T03:37:31.459Z,1024.14
2018-09-25T03:38:31.434Z,1024.18
2018-09-25T03:39:31.425Z,1024.17
2018-09-25T03:40:31.411Z,1024.16
2018-09-25T03:41:31.402Z,1024.18
2018-09-25T03:42:31.403Z,1024.18
2018-09-25T03:43:31.391Z,1024.15
2018-09-25T03:44:31.367Z,1024.11
2018-09-25T03:45:31.356Z,1024.14
2018-09-25T03:46:31.348Z,1024.14
2018-09-25T03:47:31.334Z,1024.10
2018-09-25T03:48:31.339Z,1024.10
2018-09-25T03:49:31.324Z,1024.10
2018-09-25T03:50:31.308Z,1024.11
2018-09-25T03:51:31.293Z,1024.09
2018-09-25T03:52:31.299Z,1024.12
2018-09-25T03:53:31.276Z,1024.15
2018-09-25T03:54:31.257Z,1024.13
2018-09-25T03:55:31.247Z,1024.12
2018-09-25T03:56:31.234Z,1024.14
2018-09-25T03:57:31.226Z,1024.12
2018-09-25T03:58:31.235Z,1024.14
2018-09-25T03:59:31.258Z,1024.17
2018-09-25T04:00:31.194Z,1024.15
2018-09-25T04:01:31.185Z,1024.18
2018-09-25T04:02:31.169Z,1024.20
2018-09-25T04:03:31.158Z,1024.22
2018-09-25T04:04:31.160Z,1024.25
2018-09-25T04:05:31.138Z,1024.25
2018-09-25T04:06:31.126Z,1024.24
2018-09-25T04:07:31.975Z,1024.32
2018-09-25T04:08:31.126Z,1024.33
2018-09-25T04:09:31.092Z,1024.30
2018-09-25T04:10:31.084Z,1024.31
2018-09-25T04:11:31.071Z,1024.34
2018-09-25T04:12:31.061Z,1024.36
2018-09-25T04:13:31.049Z,1024.36
2018-09-25T04:14:31.047Z,1024.37
2018-09-25T04:15:31.028Z,1024.41
2018-09-25T04:16:31.017Z,1024.43
2018-09-25T04:17:31.006Z,1024.45
2018-09-25T04:18:30.996Z,1024.43
2018-09-25T04:19:30.996Z,1024.47
2018-09-25T04:20:30.973Z,1024.49
2018-09-25T04:21:30.962Z,1024.48
2018-09-25T04:22:30.949Z,1024.47
2018-09-25T04:23:30.939Z,1024.53
2018-09-25T04:24:30.955Z,1024.52
2018-09-25T04:25:30.918Z,1024.52
2018-09-25T04:26:30.909Z,1024.54
2018-09-25T04:27:30.898Z,1024.54
2018-09-25T04:28:31.087Z,1024.55
2018-09-25T04:29:30.878Z,1024.58
2018-09-25T04:30:30.879Z,1024.57
2018-09-25T04:31:30.868Z,1024.65
2018-09-25T04:32:30.842Z,1024.66
2018-09-25T04:33:30.830Z,1024.69
2018-09-25T04:34:30.821Z,1024.74
2018-09-25T04:35:30.826Z,1024.71
2018-09-25T04:36:30.811Z,1024.73
2018-09-25T04:37:30.787Z,1024.76
2018-09-25T04:38:30.776Z,1024.71
2018-09-25T04:39:30.794Z,1024.71
2018-09-25T04:40:30.794Z,1024.71
2018-09-25T04:41:30.745Z,1024.72
2018-09-25T04:42:30.731Z,1024.75
2018-09-25T04:43:30.722Z,1024.71
2018-09-25T04:44:30.711Z,1024.71
2018-09-25T04:45:30.698Z,1024.72
2018-09-25T04:46:30.700Z,1024.72
2018-09-25T04:47:30.677Z,1024.72
2018-09-25T04:48:30.666Z,1024.70
2018-09-25T04:49:30.669Z,1024.67
2018-09-25T04:50:30.647Z,1024.69
2018-09-25T04:51:30.651Z,1024.72
2018-09-25T04:52:30.624Z,1024.70
2018-09-25T04:53:30.614Z,1024.70
2018-09-25T04:54:30.604Z,1024.71
2018-09-25T04:55:30.589Z,1024.70
2018-09-25T04:56:30.594Z,1024.71
2018-09-25T04:57:30.569Z,1024.68
2018-09-25T04:58:30.561Z,1024.68
2018-09-25T04:59:30.594Z,1024.61
2018-09-25T05:00:30.535Z,1024.62
2018-09-25T05:01:30.526Z,1024.60
2018-09-25T05:02:30.517Z,1024.59
2018-09-25T05:03:30.524Z,1024.62
2018-09-25T05:04:30.491Z,1024.65
2018-09-25T05:05:30.481Z,1024.62
2018-09-25T05:06:30.496Z,1024.65
2018-09-25T05:07:30.457Z,1024.69
2018-09-25T05:08:30.464Z,1024.67
2018-09-25T05:09:30.446Z,1024.77
2018-09-25T05:10:30.426Z,1024.77
2018-09-25T05:11:30.430Z,1024.71
2018-09-25T05:12:30.404Z,1024.77
2018-09-25T05:13:30.395Z,1024.75
2018-09-25T05:14:30.384Z,1024.81
2018-09-25T05:15:30.393Z,1024.79
2018-09-25T05:16:30.363Z,1024.85
2018-09-25T05:17:30.351Z,1024.83
2018-09-25T05:18:30.338Z,1024.80
2018-09-25T05:19:30.329Z,1024.83
2018-09-25T05:20:30.317Z,1024.81
2018-09-25T05:21:30.321Z,1024.83
2018-09-25T05:22:30.295Z,1024.87
2018-09-25T05:23:30.369Z,1024.86
2018-09-25T05:24:30.273Z,1024.85
2018-09-25T05:25:30.269Z,1024.82
2018-09-25T05:26:30.266Z,1024.75
2018-09-25T05:27:30.243Z,1024.80
2018-09-25T05:28:30.229Z,1024.79
2018-09-25T05:29:30.222Z,1024.81
2018-09-25T05:30:30.207Z,1024.79
2018-09-25T05:31:30.209Z,1024.78
2018-09-25T05:32:30.206Z,1024.79
2018-09-25T05:33:30.174Z,1024.84
2018-09-25T05:34:30.162Z,1024.79
2018-09-25T05:35:30.153Z,1024.78
2018-09-25T05:36:30.143Z,1024.79
2018-09-25T05:37:30.132Z,1024.82
2018-09-25T05:38:30.135Z,1024.83
2018-09-25T05:39:30.123Z,1024.82
2018-09-25T05:40:30.096Z,1024.84
2018-09-25T05:41:30.088Z,1024.86
2018-09-25T05:42:30.090Z,1024.86
2018-09-25T05:43:30.079Z,1024.80
2018-09-25T05:44:30.065Z,1024.85
2018-09-25T05:45:30.044Z,1024.86
2018-09-25T05:46:30.045Z,1024.87
2018-09-25T05:47:30.021Z,1024.91
2018-09-25T05:48:30.220Z,1024.89
2018-09-25T05:49:30.003Z,1024.92
2018-09-25T05:50:29.989Z,1024.89
2018-09-25T05:51:29.979Z,1024.94
2018-09-25T05:52:29.966Z,1024.94
2018-09-25T05:53:29.954Z,1024.91
2018-09-25T05:54:29.961Z,1024.94
2018-09-25T05:55:29.954Z,1024.94
2018-09-25T05:56:29.921Z,1024.96
2018-09-25T05:57:29.910Z,1024.95
2018-09-25T05:58:29.901Z,1024.96
2018-09-25T05:59:29.930Z,1024.96
2018-09-25T06:00:29.879Z,1024.91
2018-09-25T06:01:29.868Z,1024.90
2018-09-25T06:02:29.860Z,1024.94
2018-09-25T06:03:29.846Z,1024.93
2018-09-25T06:04:29.835Z,1024.97
2018-09-25T06:05:29.845Z,1024.91
2018-09-25T06:06:29.813Z,1024.93
2018-09-25T06:07:29.802Z,1024.94
2018-09-25T06:08:29.791Z,1024.96
2018-09-25T06:09:29.828Z,1024.98
2018-09-25T06:10:29.768Z,1025.01
2018-09-25T06:11:29.756Z,1025.03
2018-09-25T06:12:29.745Z,1025.03
2018-09-25T06:13:29.736Z,1025.05
2018-09-25T06:14:29.723Z,1025.06
2018-09-25T06:15:29.736Z,1025.06
2018-09-25T06:16:29.705Z,1025.04
2018-09-25T06:17:29.692Z,1025.12
2018-09-25T06:18:29.685Z,1025.14
2018-09-25T06:19:29.699Z,1025.15
2018-09-25T06:20:29.659Z,1025.16
2018-09-25T06:21:29.661Z,1025.20
2018-09-25T06:22:29.637Z,1025.20
2018-09-25T06:23:29.626Z,1025.24
2018-09-25T06:24:29.613Z,1025.26
2018-09-25T06:25:29.604Z,1025.20
2018-09-25T06:26:29.611Z,1025.14
2018-09-25T06:27:29.582Z,1025.16
2018-09-25T06:28:29.571Z,1025.16
2018-09-25T06:29:29.561Z,1025.13
2018-09-25T06:30:29.548Z,1025.15
2018-09-25T06:31:29.539Z,1025.18
2018-09-25T06:32:29.540Z,1025.18
2018-09-25T06:33:29.519Z,1025.20
2018-09-25T06:34:29.599Z,1025.21
2018-09-25T06:35:29.507Z,1025.25
2018-09-25T06:36:29.482Z,1025.27
2018-09-25T06:37:29.472Z,1025.29
2018-09-25T06:38:29.461Z,1025.32
2018-09-25T06:39:29.453Z,1025.34
2018-09-25T06:40:29.454Z,1025.37
2018-09-25T06:41:29.430Z,1025.33
2018-09-25T06:42:29.419Z,1025.37
2018-09-25T06:43:29.408Z,1025.35
2018-09-25T06:44:29.441Z,1025.36
2018-09-25T06:45:29.387Z,1025.40
2018-09-25T06:46:29.378Z,1025.42
2018-09-25T06:47:29.366Z,1025.46
2018-09-25T06:48:29.358Z,1025.44
2018-09-25T06:49:29.344Z,1025.43
2018-09-25T06:50:29.348Z,1025.43
2018-09-25T06:51:29.322Z,1025.42
2018-09-25T06:52:29.311Z,1025.42
2018-09-25T06:53:29.301Z,1025.45
2018-09-25T06:54:29.288Z,1025.47
2018-09-25T06:55:29.298Z,1025.46
2018-09-25T06:56:29.268Z,1025.49
2018-09-25T06:57:29.257Z,1025.47
2018-09-25T06:58:29.245Z,1025.54
2018-09-25T06:59:29.235Z,1025.43
2018-09-25T07:00:29.223Z,1025.53
2018-09-25T07:01:29.224Z,1025.53
2018-09-25T07:02:29.200Z,1025.58
2018-09-25T07:03:29.192Z,1025.61
2018-09-25T07:04:29.179Z,1025.58
2018-09-25T07:05:29.183Z,1025.55
2018-09-25T07:06:29.157Z,1025.56
2018-09-25T07:07:29.146Z,1025.59
2018-09-25T07:08:29.157Z,1025.59
2018-09-25T07:09:29.123Z,1025.59
2018-09-25T07:10:29.225Z,1025.61
2018-09-25T07:11:29.119Z,1025.61
2018-09-25T07:12:29.092Z,1025.61
2018-09-25T07:13:29.083Z,1025.67
2018-09-25T07:14:29.070Z,1025.63
2018-09-25T07:15:29.063Z,1025.65
2018-09-25T07:16:29.063Z,1025.67
2018-09-25T07:17:29.048Z,1025.67
2018-09-25T07:18:29.052Z,1025.68
2018-09-25T07:19:29.018Z,1025.64
2018-09-25T07:20:29.007Z,1025.67
2018-09-25T07:21:28.995Z,1025.67
2018-09-25T07:22:28.985Z,1025.68
2018-09-25T07:23:28.975Z,1025.71
2018-09-25T07:24:29.021Z,1025.75
2018-09-25T07:25:28.955Z,1025.74
2018-09-25T07:26:28.940Z,1025.79
2018-09-25T07:27:28.931Z,1025.80
2018-09-25T07:28:28.918Z,1025.82
2018-09-25T07:29:28.908Z,1025.80
2018-09-25T07:30:28.918Z,1025.82
2018-09-25T07:31:28.888Z,1025.80
2018-09-25T07:32:28.894Z,1025.78
2018-09-25T07:33:28.866Z,1025.75
2018-09-25T07:34:28.859Z,1025.74
2018-09-25T07:35:28.863Z,1025.78
2018-09-25T07:36:28.853Z,1025.77
2018-09-25T07:37:28.821Z,1025.83
2018-09-25T07:38:28.831Z,1025.86
2018-09-25T07:39:28.851Z,1025.91
2018-09-25T07:40:28.792Z,1025.84
2018-09-25T07:41:28.780Z,1025.93
2018-09-25T07:42:28.783Z,1025.95
2018-09-25T07:43:28.756Z,1025.88
2018-09-25T07:44:28.767Z,1025.91
2018-09-25T07:45:28.741Z,1025.92
2018-09-25T07:46:28.751Z,1025.92
2018-09-25T07:47:28.710Z,1025.97
2018-09-25T07:48:28.702Z,1025.91
2018-09-25T07:49:28.689Z,1025.89
2018-09-25T07:50:28.692Z,1025.88
2018-09-25T07:51:28.667Z,1025.89
2018-09-25T07:52:28.656Z,1025.86
2018-09-25T07:53:28.647Z,1025.86
2018-09-25T07:54:28.649Z,1025.91
2018-09-25T07:55:28.636Z,1025.91
2018-09-25T07:56:28.613Z,1025.95
2018-09-25T07:57:28.602Z,1025.97
2018-09-25T07:58:28.592Z,1025.97
2018-09-25T07:59:28.600Z,1025.97
2018-09-25T08:00:28.568Z,1026.01
2018-09-25T08:01:28.558Z,1026.03
2018-09-25T08:02:28.545Z,1026.00
2018-09-25T08:03:28.599Z,1026.02
2018-09-25T08:04:28.525Z,1026.04
2018-09-25T08:05:28.528Z,1026.03
2018-09-25T08:06:28.504Z,1026.02
2018-09-25T08:07:28.507Z,1026.01
2018-09-25T08:08:28.482Z,1026.07
2018-09-25T08:09:28.489Z,1026.07
2018-09-25T08:10:28.459Z,1026.15
2018-09-25T08:11:28.447Z,1026.14
2018-09-25T08:12:28.439Z,1026.18
2018-09-25T08:13:28.428Z,1026.18
2018-09-25T08:14:28.414Z,1026.18
2018-09-25T08:15:28.482Z,1026.18
2018-09-25T08:16:28.392Z,1026.16
2018-09-25T08:17:28.384Z,1026.18
2018-09-25T08:18:28.373Z,1026.19
2018-09-25T08:19:28.363Z,1026.25
2018-09-25T08:20:28.365Z,1026.22
2018-09-25T08:21:28.353Z,1026.19
2018-09-25T08:22:28.330Z,1026.18
2018-09-25T08:23:28.318Z,1026.20
2018-09-25T08:24:28.325Z,1026.22
2018-09-25T08:25:28.294Z,1026.22
2018-09-25T08:26:28.284Z,1026.25
2018-09-25T08:27:28.280Z,1026.27
2018-09-25T08:28:28.268Z,1026.25
2018-09-25T08:29:28.253Z,1026.26
2018-09-25T08:30:28.258Z,1026.27
2018-09-25T08:31:28.247Z,1026.34
2018-09-25T08:32:28.219Z,1026.33
2018-09-25T08:33:28.210Z,1026.38
2018-09-25T08:34:28.197Z,1026.35
2018-09-25T08:35:28.187Z,1026.36
2018-09-25T08:36:28.179Z,1026.32
2018-09-25T08:37:28.199Z,1026.30
2018-09-25T08:38:28.241Z,1026.38
2018-09-25T08:39:28.452Z,1026.36
2018-09-25T08:40:28.144Z,1026.34
2018-09-25T08:41:28.124Z,1026.36
2018-09-25T08:42:28.124Z,1026.41
2018-09-25T08:43:28.099Z,1026.37
2018-09-25T08:44:28.086Z,1026.38
2018-09-25T08:45:28.075Z,1026.42
2018-09-25T08:46:28.066Z,1026.44
2018-09-25T08:47:28.121Z,1026.48
2018-09-25T08:48:28.043Z,1026.49
2018-09-25T08:49:28.033Z,1026.59
2018-09-25T08:50:28.023Z,1026.68
2018-09-25T08:51:28.011Z,1026.55
2018-09-25T08:52:27.997Z,1026.56
2018-09-25T08:53:28.065Z,1026.54
2018-09-25T08:54:27.976Z,1026.50
2018-09-25T08:55:27.967Z,1026.48
2018-09-25T08:56:27.955Z,1026.47
2018-09-25T08:57:27.944Z,1026.51
2018-09-25T08:58:27.972Z,1026.53
2018-09-25T08:59:27.920Z,1026.46
2018-09-25T09:00:27.909Z,1026.53
2018-09-25T09:01:27.917Z,1026.52
2018-09-25T09:02:27.887Z,1026.58
2018-09-25T09:03:27.876Z,1026.60
2018-09-25T09:04:27.881Z,1026.63
2018-09-25T09:05:27.902Z,1026.66
2018-09-25T09:06:27.856Z,1026.65
2018-09-25T09:07:27.833Z,1026.70
2018-09-25T09:08:27.897Z,1026.78
2018-09-25T09:09:27.811Z,1026.82
2018-09-25T09:10:27.814Z,1026.91
2018-09-25T09:11:27.790Z,1026.76
2018-09-25T09:12:27.778Z,1026.77
2018-09-25T09:13:27.766Z,1026.74
2018-09-25T09:14:27.757Z,1026.88
2018-09-25T09:15:27.762Z,1026.94
2018-09-25T09:16:27.761Z,1026.88
2018-09-25T09:17:27.726Z,1026.88
2018-09-25T09:18:27.714Z,1026.89
2018-09-25T09:19:27.703Z,1026.86
2018-09-25T09:20:27.691Z,1026.85
2018-09-25T09:21:27.681Z,1026.85
2018-09-25T09:22:27.692Z,1026.84
2018-09-25T09:23:27.656Z,1026.90
2018-09-25T09:24:27.669Z,1026.91
2018-09-25T09:25:27.634Z,1026.92
2018-09-25T09:26:27.645Z,1026.87
2018-09-25T09:27:27.618Z,1026.94
2018-09-25T09:28:27.604Z,1026.93
2018-09-25T09:29:27.591Z,1026.91
2018-09-25T09:30:27.609Z,1026.93
2018-09-25T09:31:27.570Z,1026.88
2018-09-25T09:32:27.595Z,1026.91
2018-09-25T09:33:27.548Z,1026.95
2018-09-25T09:34:27.538Z,1026.95
2018-09-25T09:35:27.525Z,1026.95
2018-09-25T09:36:27.515Z,1026.95
2018-09-25T09:37:27.504Z,1026.97
2018-09-25T09:38:27.506Z,1027.01
2018-09-25T09:39:27.483Z,1027.00
2018-09-25T09:40:27.470Z,1027.02
2018-09-25T09:41:27.578Z,1026.97
2018-09-25T09:42:27.472Z,1026.98
2018-09-25T09:43:27.439Z,1026.97
2018-09-25T09:44:27.429Z,1026.91
2018-09-25T09:45:27.419Z,1026.92
2018-09-25T09:46:27.405Z,1026.93
2018-09-25T09:47:27.392Z,1026.91
2018-09-25T09:48:27.398Z,1026.86
2018-09-25T09:49:27.387Z,1026.82
2018-09-25T09:50:27.436Z,1026.80
2018-09-25T09:51:27.980Z,1026.74
2018-09-25T09:52:27.340Z,1026.74
2018-09-25T09:53:27.328Z,1026.71
2018-09-25T09:54:27.335Z,1026.71
2018-09-25T09:55:27.307Z,1026.74
2018-09-25T09:56:27.336Z,1026.72
2018-09-25T09:57:27.284Z,1026.78
2018-09-25T09:58:27.284Z,1026.84
2018-09-25T09:59:27.263Z,1026.83
2018-09-25T10:00:27.266Z,1026.81
2018-09-25T10:01:27.245Z,1026.83
2018-09-25T10:02:27.233Z,1026.88
2018-09-25T10:03:27.224Z,1026.86
2018-09-25T10:04:27.212Z,1026.88
2018-09-25T10:05:27.218Z,1026.90
2018-09-25T10:06:27.192Z,1026.83
2018-09-25T10:07:27.194Z,1026.86
2018-09-25T10:08:27.169Z,1026.86
2018-09-25T10:09:27.157Z,1026.85
2018-09-25T10:10:27.161Z,1026.81
2018-09-25T10:11:27.135Z,1026.83
2018-09-25T10:12:27.296Z,1026.84
2018-09-25T10:13:27.116Z,1026.82
2018-09-25T10:14:27.106Z,1026.85
2018-09-25T10:15:27.095Z,1026.86
2018-09-25T10:16:27.084Z,1026.88
2018-09-25T10:17:27.075Z,1026.90
2018-09-25T10:18:27.079Z,1026.87
2018-09-25T10:19:27.054Z,1026.93
2018-09-25T10:20:27.043Z,1026.92
2018-09-25T10:21:27.033Z,1026.92
2018-09-25T10:22:27.040Z,1026.92
2018-09-25T10:23:27.012Z,1026.92
2018-09-25T10:24:27.007Z,1026.91
2018-09-25T10:25:27.005Z,1026.95
2018-09-25T10:26:26.978Z,1026.90
2018-09-25T10:27:27.007Z,1026.90
2018-09-25T10:28:26.989Z,1026.87
2018-09-25T10:29:26.943Z,1026.92
2018-09-25T10:30:26.930Z,1026.87
2018-09-25T10:31:26.919Z,1026.88
2018-09-25T10:32:26.908Z,1026.87
2018-09-25T10:33:26.898Z,1026.89
2018-09-25T10:34:26.901Z,1026.91
2018-09-25T10:35:26.878Z,1026.89
2018-09-25T10:36:26.868Z,1026.87
2018-09-25T10:37:26.856Z,1026.90
2018-09-25T10:38:26.857Z,1026.87
2018-09-25T10:39:26.836Z,1026.93
2018-09-25T10:40:26.825Z,1026.89
2018-09-25T10:41:26.813Z,1026.91
2018-09-25T10:42:26.818Z,1026.91
2018-09-25T10:43:26.792Z,1026.91
2018-09-25T10:44:26.780Z,1026.91
2018-09-25T10:45:26.769Z,1026.89
2018-09-25T10:46:26.755Z,1026.90
2018-09-25T10:47:26.761Z,1026.92
2018-09-25T10:48:26.760Z,1026.85
2018-09-25T10:49:26.723Z,1026.87
2018-09-25T10:50:26.714Z,1026.75
2018-09-25T10:51:26.735Z,1026.81
2018-09-25T10:52:26.690Z,1026.81
2018-09-25T10:53:26.681Z,1026.80
2018-09-25T10:54:26.668Z,1026.78
2018-09-25T10:55:26.720Z,1026.82
2018-09-25T10:56:26.644Z,1026.80
2018-09-25T10:57:26.658Z,1026.80
2018-09-25T10:58:26.624Z,1026.81
2018-09-25T10:59:26.615Z,1026.79
2018-09-25T11:00:26.603Z,1026.42
2018-09-25T11:01:26.591Z,1026.38
2018-09-25T11:02:26.581Z,1026.37
2018-09-25T11:03:26.583Z,1026.68
2018-09-25T11:04:26.574Z,1026.37
2018-09-25T11:05:26.548Z,1026.36
2018-09-25T11:06:26.537Z,1026.37
2018-09-25T11:07:26.539Z,1026.45
2018-09-25T11:08:26.515Z,1026.81
2018-09-25T11:09:26.519Z,1026.75
2018-09-25T11:10:26.493Z,1026.81
2018-09-25T11:11:26.484Z,1026.42
2018-09-25T11:12:26.475Z,1026.47
2018-09-25T11:13:26.460Z,1026.46
2018-09-25T11:14:26.462Z,1026.80
2018-09-25T11:15:26.438Z,1026.80
2018-09-25T11:16:26.430Z,1026.83
2018-09-25T11:17:26.417Z,1026.89
2018-09-25T11:18:26.421Z,1026.91
2018-09-25T11:19:26.395Z,1026.91
2018-09-25T11:20:26.386Z,1026.88
2018-09-25T11:21:26.374Z,1026.90
2018-09-25T11:22:26.364Z,1026.89
2018-09-25T11:23:26.376Z,1026.85
2018-09-25T11:24:26.343Z,1026.86
2018-09-25T11:25:26.360Z,1026.84
2018-09-25T11:26:26.319Z,1026.86
2018-09-25T11:27:26.309Z,1026.87
2018-09-25T11:28:26.296Z,1026.91
2018-09-25T11:29:26.301Z,1026.89
2018-09-25T11:30:26.290Z,1026.87
2018-09-25T11:31:26.264Z,1026.92
2018-09-25T11:32:26.253Z,1026.90
2018-09-25T11:33:26.244Z,1026.93
2018-09-25T11:34:26.233Z,1026.94
2018-09-25T11:35:26.316Z,1026.89
2018-09-25T11:36:26.212Z,1026.87
2018-09-25T11:37:26.202Z,1026.87
2018-09-25T11:38:26.189Z,1026.79
2018-09-25T11:39:26.180Z,1026.78
2018-09-25T11:40:26.185Z,1026.81
2018-09-25T11:41:26.282Z,1026.75
2018-09-25T11:42:26.149Z,1026.81
2018-09-25T11:43:26.148Z,1026.86
2018-09-25T11:44:26.125Z,1026.85
2018-09-25T11:45:26.129Z,1026.89
2018-09-25T11:46:26.119Z,1026.89
2018-09-25T11:47:26.106Z,1026.88
2018-09-25T11:48:26.082Z,1026.92
2018-09-25T11:49:26.070Z,1026.89
2018-09-25T11:50:26.103Z,1026.81
2018-09-25T11:51:26.055Z,1026.78
2018-09-25T11:52:26.075Z,1026.81
2018-09-25T11:53:26.038Z,1026.67
2018-09-25T11:54:26.017Z,1026.66
2018-09-25T11:55:26.008Z,1026.38
2018-09-25T11:56:26.002Z,1026.36
2018-09-25T11:57:25.987Z,1026.39
2018-09-25T11:58:26.041Z,1026.39
2018-09-25T11:59:25.965Z,1026.36
2018-09-25T12:00:25.952Z,1026.31
2018-09-25T12:01:25.944Z,1026.30
2018-09-25T12:02:25.935Z,1026.30
2018-09-25T12:03:25.919Z,1026.25
2018-09-25T12:04:25.931Z,1026.28
2018-09-25T12:05:25.898Z,1026.63